Tiempo atmosférico en la estación meteorológica de Pedrosillo de Los Aires, Salamanca (865 m.)



Fecha
DESCASC
Temp. máxima en grados centígrados (hora)
DESCASC
Temp. mínima en grados centígrados (hora)
DESCASC
Temp. media en grados centígrados
DESCASC
Racha de viento máxima en m/sg (hora)
DESCASC
Velocidad máxima media en intervalos de 10 minutos(hora)
DESCASC
Precipitaciones diarias en mm
DESCASC
Precipitaciones de 00:00 a 06:00 en mm
DESCASC
Precipitaciones de 06:00 a 12:00 en mm
DESCASC
Precipitaciones de 12:00 a 18:00 en mm
DESCASC
Precipitaciones de 18:00 a 24:00 en mm
DESCASC
15-08-2019 31.7 (19:10) 13.4 (07:30) 22.6 8.89 (14:10) 5.56 (14:10) 0 0 0 0 0
14-08-2019 31.2 (18:30) 7.3 (00:00) 19.3 7.5 (17:10) 3.89 (16:40) 0 0 0 0 0
13-08-2019 26.2 (17:10) 9 (00:00) 17.6 8.61 (04:10) 6.11 (12:30) 0 0 0 0 0
12-08-2019 22.5 (18:30) 5.8 (00:00) 14.2 10 (17:10) 6.39 (17:10) 0 0 0 0 0
11-08-2019 22.5 (17:20) 11.7 (00:00) 17.1 9.72 (17:40) 5 (17:40) 0 0 0 0 0
10-08-2019 27 (17:40) 9.9 (00:00) 18.4 8.89 (17:50) 5.28 (19:20) 0.2 0.2 0 0 0
09-08-2019 21.7 (00:00) 14.3 (00:00) 18 12.5 (15:00) 7.78 (14:30) 10.6 0 0 10.2 0.4
08-08-2019 28.9 (19:10) 17.1 (00:00) 23 17.22 (17:50) 11.11 (17:50) 0 0 0 0 0
07-08-2019 23.8 (12:50) 16.7 (00:00) 20.3 13.89 (16:10) 7.78 (16:10) 0 0 0 0 0
06-08-2019 32.1 (16:20) 12.6 (00:00) 22.3 11.67 (17:50) 6.67 (17:50) 0 0 0 0 0
05-08-2019 32.8 (17:50) 11.5 (00:00) 22.1 10.56 (15:30) 6.39 (15:10) 0 0 0 0 0
04-08-2019 32.2 (17:40) 12.5 (00:00) 22.4 10.28 (18:20) 6.11 (18:20) 0 0 0 0 0
03-08-2019 33 (18:20) 12 (00:00) 22.5 10.28 (12:20) 5.83 (12:30) 0 0 0 0 0
02-08-2019 32.3 (18:00) 10.1 (00:00) 21.2 6.94 (17:30) 4.44 (17:40) 0 0 0 0 0
01-08-2019 31.3 (18:40) 10.4 (00:00) 20.8 8.61 (19:30) 4.44 (17:00) 0 0 0 0 0
31-07-2019 30.5 (17:30) 9.6 (00:00) 20.1 8.61 (11:10) 5 (11:40) 0 0 0 0 0
30-07-2019 24.5 (18:00) 6 (00:00) 15.3 10.56 (15:10) 6.39 (12:20) 0 0 0 0 0
29-07-2019 26.3 (17:10) 9.4 (00:00) 17.8 10.83 (14:50) 6.11 (18:40) 0 0 0 0 0
28-07-2019 29 (18:50) 10.2 (00:00) 19.6 8.33 (01:10) 6.11 (01:30) 0 0 0 0 0
27-07-2019 24.5 (18:40) 12.4 (00:00) 18.4 10 (19:10) 5.83 (18:50) 0.6 0 0.6 0 0
26-07-2019 25.1 (17:30) 14.4 (00:00) 19.8 10 (16:20) 5.83 (16:50) 0 0 0 0 0
25-07-2019 30.4 (17:50) 13.1 (00:00) 21.8 16.94 (16:10) 9.72 (14:40) 0 0 0 0 0
24-07-2019 33.7 (16:40) 15.1 (00:00) 24.4 13.33 (14:10) 7.5 (14:10) 0 0 0 0 0
23-07-2019 33.5 (16:50) 18.5 (00:00) 26 18.89 (03:10) 11.39 (03:20) 2.6 1.4 1.2 0 0
22-07-2019 36.4 (14:40) 15.5 (00:00) 26 12.5 (16:10) 6.94 (16:10) 2.4 0 0 2.4 0
21-07-2019 35.4 (17:30) 12.1 (00:00) 23.8 10.83 (16:10) 5.83 (15:40) 0 0 0 0 0
20-07-2019 33.6 (18:10) 14.7 (00:00) 24.1 8.61 (16:10) 5 (19:50) 0 0 0 0 0
19-07-2019 34 (17:10) 12.3 (00:00) 23.2 11.94 (18:50) 6.11 (17:50) 0 0 0 0 0

Gráficas

Temp. máximas Temp. mínimas Temp. medias Precipitaciones Rachas de viento máximas Velocidades máximas media en intervalos de 10 minutos

Datos horarios

Fecha y hora oficial Temperatura (ºC) Velocidad del viento (km/h) Dirección del viento Racha (km/h) Dirección de racha Precipitación (mm) Presión (hPa) Tendencia (hPa) Humedad (%)
2019-08-17 23:00:00 23.2 8 Oeste 13 Oeste 0 -- -- 35
2019-08-17 22:00:00 26.1 8 Oeste 24 Sudoeste 0 -- -- 28
2019-08-17 21:00:00 29.5 17 Sudoeste 37 Sudoeste 0 -- -- 24
2019-08-17 20:00:00 31.8 20 Sudoeste 35 Sudoeste 0 -- -- 19
2019-08-17 19:00:00 33.1 19 Sudoeste 34 Sudoeste 0 -- -- 20
2019-08-17 18:00:00 33.4 18 Sudoeste 37 Sudoeste 0 -- -- 22
2019-08-17 17:00:00 33.4 21 Sudoeste 36 Sudoeste 0 -- -- 19
2019-08-17 16:00:00 33.1 19 Sudoeste 40 Sudoeste 0 -- -- 23
2019-08-17 15:00:00 32.4 18 Sudoeste 35 Sudoeste 0 -- -- 22
2019-08-17 14:00:00 31.8 11 Sudoeste 26 Sudoeste 0 -- -- 29
2019-08-17 13:00:00 29.6 8 Este 16 Este 0 -- -- 34
2019-08-17 12:00:00 27.3 4 Noroeste 10 Este 0 -- -- 37
2019-08-17 11:00:00 24.8 6 Este 10 Este 0 -- -- 45
2019-08-17 10:00:00 20.2 3 Sur 7 Sudoeste 0 -- -- 57
2019-08-17 09:00:00 14.1 4 Sudoeste 10 Sudoeste 0 -- -- 69
2019-08-17 08:00:00 11.5 7 Oeste 8 Sudoeste 0 -- -- 76
2019-08-17 07:00:00 11.8 4 Noroeste 12 Noroeste 0 -- -- 80
2019-08-17 06:00:00 12.4 6 Oeste 9 Oeste 0 -- -- 75
2019-08-17 05:00:00 13.3 6 Oeste 10 Oeste 0 -- -- 70
2019-08-17 04:00:00 14.8 8 Oeste 9 Oeste 0 -- -- 66
2019-08-17 03:00:00 17.1 2 Noroeste 8 Oeste 0 -- -- 55
2019-08-17 02:00:00 18.1 5 Sudoeste 9 Oeste 0 -- -- 50
2019-08-17 01:00:00 19.1 7 Sudoeste 9 Sudoeste 0 -- -- 44
2019-08-17 00:00:00 21.4 6 Sudoeste 12 Oeste 0 -- -- 39
2019-08-16 23:00:00 21.3 8 Oeste 12 Oeste 0 -- -- 35
2019-08-16 22:00:00 26.3 3 Oeste 15 Noroeste 0 -- -- 25
2019-08-16 21:00:00 29.6 10 Noroeste 26 Noroeste 0 -- -- 21
2019-08-16 20:00:00 31.8 13 Noroeste 31 Oeste 0 -- -- 20
2019-08-16 19:00:00 32.4 20 Oeste 32 Oeste 0 -- -- 25
2019-08-16 18:00:00 33 15 Noroeste 30 Oeste 0 -- -- 25
2019-08-16 17:00:00 33 12 Noroeste 30 Noroeste 0 -- -- 30
2019-08-16 16:00:00 32.2 15 Noroeste 26 Oeste 0 -- -- 31
2019-08-16 15:00:00 31.5 12 Sudoeste 27 Sudoeste 0 -- -- 30
2019-08-16 14:00:00 30.6 11 Oeste 22 Oeste 0 -- -- 33
2019-08-16 13:00:00 29.1 7 Oeste 14 Oeste 0 -- -- 38
2019-08-16 12:00:00 27.4 6 Noroeste 14 Norte 0 -- -- 42
2019-08-16 11:00:00 24.8 5 Sudoeste 14 Oeste 0 -- -- 51
2019-08-16 10:00:00 21.5 4 Sudoeste 6 Sudoeste 0 -- -- 59
2019-08-16 09:00:00 15.7 5 Sudoeste 8 Oeste 0 -- -- 74
2019-08-16 08:00:00 12.8 4 Sudoeste 10 Oeste 0 -- -- 85
2019-08-16 07:00:00 13.2 7 Oeste 9 Oeste 0 -- -- 81
2019-08-16 06:00:00 14.1 2 Oeste 15 Sudoeste 0 -- -- 76
2019-08-16 05:00:00 15.8 9 Sudoeste 12 Sudoeste 0 -- -- 70
2019-08-16 04:00:00 16.5 8 Sudoeste 13 Sudoeste 0 -- -- 66
2019-08-16 03:00:00 18.1 2 Noroeste 9 Oeste 0 -- -- 62
2019-08-16 02:00:00 18.5 3 Sudeste 15 Oeste 0 -- -- 59
2019-08-16 01:00:00 20.2 9 Oeste 10 Oeste 0 -- -- 52
2019-08-16 00:00:00 19.7 8 Oeste 13 Oeste 0 -- -- 54
2019-08-15 23:00:00 22.3 4 Norte 17 Oeste 0 -- -- 44
2019-08-15 22:00:00 25.3 7 Noroeste 13 Oeste 0 -- -- 39
2019-08-15 21:00:00 28.5 8 Nordeste 14 Nordeste 0 -- -- 33
2019-08-15 20:00:00 30.7 11 Nordeste 17 Norte 0 -- -- 29
2019-08-15 19:00:00 31.6 9 Norte 21 Este 0 -- -- 27
2019-08-15 18:00:00 31.2 12 Este 23 Nordeste 0 -- -- 28
2019-08-15 17:00:00 30.5 14 Nordeste 21 Nordeste 0 -- -- 29
2019-08-15 16:00:00 30 9 Nordeste 21 Nordeste 0 -- -- 27
2019-08-15 15:00:00 29.4 16 Nordeste 32 Nordeste 0 -- -- 30
2019-08-15 14:00:00 28.7 18 Nordeste 29 Norte 0 -- -- 31
2019-08-15 13:00:00 27.1 17 Nordeste 23 Nordeste 0 -- -- 33
2019-08-15 12:00:00 25 13 Nordeste 20 Nordeste 0 -- -- 50
2019-08-15 11:00:00 22.5 11 Nordeste 16 Este 0 -- -- 58
2019-08-15 10:00:00 20.3 10 Nordeste 14 Nordeste 0 -- -- 67
2019-08-15 09:00:00 16.6 0 Calma 5 Oeste 0 -- -- 81
2019-08-15 08:00:00 13.5 5 Oeste 9 Oeste 0 -- -- 87
2019-08-15 07:00:00 13.9 5 Sudoeste 9 Oeste 0 -- -- 85
2019-08-15 06:00:00 14.9 4 Oeste 5 Oeste 0 -- -- 82
2019-08-15 05:00:00 15.7 3 Oeste 14 Oeste 0 -- -- 82
2019-08-15 04:00:00 16.5 9 Oeste 11 Oeste 0 -- -- 78
2019-08-15 03:00:00 18.7 4 Sur 11 Sudeste 0 -- -- 70
2019-08-15 02:00:00 20 5 Sur 10 Sudeste 0 -- -- 65
2019-08-15 01:00:00 20.3 3 Oeste 10 Noroeste 0 -- -- 61
2019-08-15 00:00:00 20.7 8 Oeste 13 Oeste 0 -- -- 56
2019-08-14 23:00:00 21.9 7 Oeste 10 Oeste 0 -- -- 51
2019-08-14 22:00:00 25 5 Noroeste 15 Noroeste 0 -- -- 42
2019-08-14 21:00:00 28.2 11 Noroeste 21 Noroeste 0 -- -- 33
2019-08-14 20:00:00 30.4 9 Oeste 18 Sudoeste 0 -- -- 27
2019-08-14 19:00:00 30.9 6 Noroeste 19 Oeste 0 -- -- 26
2019-08-14 18:00:00 30.8 11 Oeste 27 Oeste 0 -- -- 23
2019-08-14 17:00:00 30.2 11 Norte 26 Noroeste 0 -- -- 23
2019-08-14 16:00:00 30.2 12 Norte 23 Noroeste 0 -- -- 23
2019-08-14 15:00:00 29.5 7 Nordeste 24 Norte 0 -- -- 24
2019-08-14 14:00:00 28.2 6 Norte 27 Oeste 0 -- -- 25
2019-08-14 13:00:00 27.2 9 Nordeste 20 Sudeste 0 -- -- 25
2019-08-14 12:00:00 25.3 4 Oeste 13 Norte 0 -- -- 29
2019-08-14 11:00:00 22.5 8 Sudoeste 12 Oeste 0 -- -- 35
2019-08-14 10:00:00 17.5 4 Sudoeste 8 Oeste 0 -- -- 49
2019-08-14 09:00:00 11.8 4 Noroeste 9 Oeste 0 -- -- 64
2019-08-14 08:00:00 8.7 3 Oeste 9 Oeste 0 -- -- 73
2019-08-14 07:00:00 7.7 5 Oeste 8 Noroeste 0 -- -- 78
2019-08-14 06:00:00 8.3 4 Oeste 11 Sudoeste 0 -- -- 75
2019-08-14 05:00:00 8.7 10 Sudoeste 12 Sudoeste 0 -- -- 70
2019-08-14 04:00:00 8.9 6 Sudoeste 9 Oeste -- -- -- 76
2019-08-14 03:00:00 10.3 4 Noroeste 13 Oeste 0 -- -- 72
2019-08-14 02:00:00 10.6 6 Sudoeste 11 Oeste 0 -- -- 65
2019-08-14 01:00:00 12.7 6 Oeste 9 Oeste 0 -- -- 58
2019-08-14 00:00:00 14.4 8 Noroeste 12 Oeste 0 -- -- 52
2019-08-13 23:00:00 17.1 8 Noroeste 10 Noroeste 0 -- -- 43
2019-08-13 22:00:00 19.9 6 Nordeste 18 Nordeste 0 -- -- 41
2019-08-13 21:00:00 22.9 13 Nordeste 21 Nordeste 0 -- -- 31
2019-08-13 20:00:00 25.1 13 Nordeste 21 Nordeste 0 -- -- 27
2019-08-13 19:00:00 25.6 16 Nordeste 22 Nordeste 0 -- -- 25
2019-08-13 18:00:00 26.2 14 Nordeste 24 Nordeste 0 -- -- 25
2019-08-13 17:00:00 25.8 12 Este 22 Nordeste 0 -- -- 26
2019-08-13 16:00:00 25.5 9 Este 16 Este 0 -- -- 26
2019-08-13 15:00:00 24.7 9 Nordeste 24 Nordeste 0 -- -- 28
2019-08-13 14:00:00 23.5 16 Nordeste 29 Nordeste 0 -- -- 33
2019-08-13 13:00:00 21.2 20 Nordeste 29 Nordeste 0 -- -- 42
2019-08-13 12:00:00 19.1 17 Nordeste 28 Nordeste 0 -- -- 50
2019-08-13 11:00:00 16.4 14 Nordeste 21 Nordeste 0 -- -- 58
2019-08-13 10:00:00 13.1 15 Nordeste 22 Nordeste 0 -- -- 70
2019-08-13 09:00:00 11.1 13 Nordeste 19 Nordeste 0 -- -- 77
2019-08-13 08:00:00 9.2 8 Nordeste 19 Nordeste 0 -- -- 84
2019-08-13 07:00:00 9.7 12 Nordeste 21 Nordeste 0 -- -- 80
2019-08-13 06:00:00 10.5 13 Nordeste 29 Nordeste 0 -- -- 77
2019-08-13 05:00:00 11.6 18 Nordeste 31 Nordeste 0 -- -- 72
2019-08-13 04:00:00 12.8 17 Nordeste 24 Nordeste 0 -- -- 64
2019-08-13 03:00:00 12.2 13 Norte 17 Nordeste 0 -- -- 63
2019-08-13 02:00:00 13 8 Nordeste 19 Nordeste 0 -- -- 60
2019-08-13 01:00:00 14.4 14 Nordeste 21 Nordeste 0 -- -- 53
2019-08-13 00:00:00 15.2 2 Noroeste 6 Norte 0 -- -- 46
2019-08-12 23:00:00 16.9 3 Norte 8 Nordeste 0 -- -- 40
2019-08-12 22:00:00 18 6 Nordeste 16 Nordeste 0 -- -- 43
2019-08-12 21:00:00 19.5 13 Nordeste 22 Nordeste 0 -- -- 33
2019-08-12 20:00:00 20.3 19 Nordeste 30 Nordeste 0 -- -- 32
2019-08-12 19:00:00 21.7 19 Nordeste 30 Nordeste 0 -- -- 29
2019-08-12 18:00:00 22.4 19 Nordeste 36 Nordeste 0 -- -- 28
2019-08-12 17:00:00 21.9 19 Nordeste 32 Nordeste 0 -- -- 33
2019-08-12 16:00:00 21.3 18 Nordeste 32 Nordeste 0 -- -- 37
2019-08-12 15:00:00 20.2 20 Nordeste 35 Norte 0 -- -- 39
2019-08-12 14:00:00 19 23 Nordeste 35 Nordeste 0 -- -- 43
2019-08-12 13:00:00 17.9 21 Nordeste 33 Este 0 -- -- 48
2019-08-12 12:00:00 16.6 18 Nordeste 27 Nordeste 0 -- -- 55
2019-08-12 11:00:00 14.9 16 Nordeste 27 Nordeste 0 -- -- 64
2019-08-12 10:00:00 12.5 16 Nordeste 24 Nordeste 0 -- -- 72
2019-08-12 09:00:00 8.1 8 Nordeste 12 Nordeste 0 -- -- 95
2019-08-12 08:00:00 5.8 0 Calma 5 Noroeste 0 -- -- 93
2019-08-12 07:00:00 6.2 3 Oeste 5 Oeste 0 -- -- 93
2019-08-12 06:00:00 6.8 5 Oeste 6 Oeste 0 -- -- 89
2019-08-12 05:00:00 7.9 3 Oeste 6 Oeste 0 -- -- 86
2019-08-12 04:00:00 8.7 2 Oeste 7 Oeste 0 -- -- 83
2019-08-12 03:00:00 10.4 4 Oeste 6 Oeste 0 -- -- 77
2019-08-12 02:00:00 12.8 6 Noroeste 12 Norte 0 -- -- 66
2019-08-12 01:00:00 13.2 7 Norte 21 Noroeste 0 -- -- 64
2019-08-12 00:00:00 14.6 9 Noroeste 16 Noroeste 0 -- -- 58
2019-08-11 23:00:00 15.8 7 Noroeste 13 Noroeste 0 -- -- 49
2019-08-11 22:00:00 17.2 8 Noroeste 18 Noroeste 0 -- -- 44
2019-08-11 21:00:00 19.8 10 Noroeste 24 Noroeste 0 -- -- 37
2019-08-11 20:00:00 21.4 15 Noroeste 31 Noroeste 0 -- -- 32
2019-08-11 19:00:00 22 14 Noroeste 28 Noroeste 0 -- -- 32
2019-08-11 18:00:00 22.4 16 Noroeste 35 Noroeste 0 -- -- 32
2019-08-11 17:00:00 22.3 13 Noroeste 30 Noroeste 0 -- -- 37
2019-08-11 16:00:00 21.4 17 Noroeste 27 Noroeste 0 -- -- 40
2019-08-11 15:00:00 20.2 15 Noroeste 27 Oeste 0 -- -- 48
2019-08-11 14:00:00 19.5 11 Noroeste 23 Oeste 0 -- -- 53
2019-08-11 13:00:00 17.5 10 Oeste 25 Noroeste 0 -- -- 64
2019-08-11 12:00:00 16 14 Noroeste 22 Oeste 0 -- -- 73
2019-08-11 11:00:00 15.7 12 Noroeste 26 Noroeste 0 -- -- 75
2019-08-11 10:00:00 15.1 14 Noroeste 27 Noroeste 0 -- -- 80
2019-08-11 09:00:00 13.4 10 Noroeste 20 Noroeste 0 -- -- 89
2019-08-11 08:00:00 11.8 7 Oeste 12 Noroeste 0 -- -- 92
2019-08-11 07:00:00 12.5 6 Noroeste 13 Nordeste 0 -- -- 89
2019-08-11 06:00:00 13.3 9 Nordeste 15 Nordeste 0 -- -- 87
2019-08-11 05:00:00 14.8 6 Norte 17 Oeste 0 -- -- 82
2019-08-11 04:00:00 15.9 5 Noroeste 19 Noroeste 0 -- -- 73
2019-08-11 03:00:00 16.7 10 Noroeste 24 Oeste 0 -- -- 68
2019-08-11 02:00:00 17.2 0 Calma 14 Noroeste 0 -- -- 63
2019-08-11 01:00:00 16.6 6 Oeste 19 Oeste 0 -- -- 65
2019-08-11 00:00:00 18.8 4 Oeste 12 Noroeste 0 -- -- 52
2019-08-10 23:00:00 20.1 3 Norte 13 Noroeste 0 -- -- 47
2019-08-10 22:00:00 21.6 8 Noroeste 18 Noroeste 0 -- -- 42
2019-08-10 21:00:00 23.3 10 Noroeste 22 Noroeste 0 -- -- 42
2019-08-10 20:00:00 24.5 12 Oeste 28 Sudoeste 0 -- -- 40
2019-08-10 19:00:00 26.4 14 Sudoeste 27 Sudoeste 0 -- -- 32
2019-08-10 18:00:00 26.9 17 Sudoeste 32 Sudoeste 0 -- -- 32
2019-08-10 17:00:00 26.9 13 Sudoeste 24 Noroeste 0 -- -- 29
2019-08-10 16:00:00 25 6 Este 17 Oeste 0 -- -- 38
2019-08-10 15:00:00 23.4 6 Nordeste 17 Norte 0 -- -- 46
2019-08-10 14:00:00 21.6 8 Nordeste 18 Nordeste 0 -- -- 52
2019-08-10 13:00:00 19.9 9 Nordeste 18 Nordeste 0 -- -- 65
2019-08-10 12:00:00 18.5 10 Norte 17 Nordeste 0 -- -- 69
2019-08-10 11:00:00 17 8 Nordeste 14 Nordeste 0 -- -- 77
2019-08-10 10:00:00 15.7 5 Este 8 Este 0 -- -- 86
2019-08-10 09:00:00 12.3 4 Oeste 9 Oeste 0 -- -- 98
2019-08-10 08:00:00 11 2 Oeste 12 Oeste 0 -- -- 99
2019-08-10 07:00:00 10.3 4 Sudoeste 6 Oeste 0 -- -- 98
2019-08-10 06:00:00 10.1 5 Noroeste 9 Oeste 0.2 -- -- 97
2019-08-10 05:00:00 10.6 5 Oeste 9 Oeste 0 -- -- 98
2019-08-10 04:00:00 11.3 4 Oeste 7 Oeste 0 -- -- 98
2019-08-10 03:00:00 12.2 4 Oeste 9 Oeste 0 -- -- 97
2019-08-10 02:00:00 13.1 4 Sudoeste 10 Sudoeste 0 -- -- 98
2019-08-10 01:00:00 13.8 6 Sudoeste 10 Sudoeste 0 -- -- 97
2019-08-10 00:00:00 14.4 8 Sudoeste 12 Sudoeste 0 -- -- 96
2019-08-09 23:00:00 15.6 6 Sudoeste 8 Sudoeste 0 -- -- 94
2019-08-09 22:00:00 16.7 5 Sudoeste 13 Sudoeste 0 -- -- 90
2019-08-09 21:00:00 18.7 6 Sudoeste 21 Sudoeste 0 -- -- 81
2019-08-09 20:00:00 18.6 12 Sudoeste 29 Sudoeste 0 -- -- 83
2019-08-09 19:00:00 16.8 20 Sudoeste 37 Sudoeste 0.4 -- -- 90
2019-08-09 18:00:00 15.5 19 Sudoeste 36 Sudoeste 1.4 -- -- 94
2019-08-09 17:00:00 14.8 18 Sudoeste 44 Oeste 1 -- -- 87
2019-08-09 16:00:00 18.5 20 Oeste 43 Sudoeste 1.4 -- -- 89
2019-08-09 15:00:00 21 27 Sudoeste 45 Sudoeste 0 -- -- 84
2019-08-09 14:00:00 19.4 16 Sudoeste 30 Sudoeste 4.8 -- -- 96
2019-08-09 13:00:00 18.3 8 Noroeste 25 Noroeste 1.6 -- -- 94
2019-08-09 12:00:00 19.9 28 Sudoeste 44 Sudoeste 0 -- -- 89
2019-08-09 11:00:00 19.4 18 Sudoeste 36 Sudoeste 0 -- -- 93
2019-08-09 10:00:00 19 18 Sudoeste 29 Sudoeste 0 -- -- 92
2019-08-09 09:00:00 19.2 19 Sudoeste 35 Sudoeste 0 -- -- 89
2019-08-09 08:00:00 18.2 21 Sudoeste 45 Sudoeste 0 -- -- 91
2019-08-09 07:00:00 18.5 23 Sudoeste 42 Sudoeste 0 -- -- 88
2019-08-09 06:00:00 18.6 17 Sudoeste 30 Sudoeste 0 -- -- 85
2019-08-09 05:00:00 18.2 14 Oeste 27 Sudoeste 0 -- -- 86
2019-08-09 04:00:00 19 19 Sudoeste 31 Oeste 0 -- -- 81
2019-08-09 03:00:00 19.5 17 Sudoeste 29 Sudoeste 0 -- -- 77
2019-08-09 02:00:00 20.3 18 Sudoeste 28 Sudoeste 0 -- -- 72
2019-08-09 01:00:00 20.7 14 Sudoeste 30 Sudoeste 0 -- -- 69
2019-08-09 00:00:00 21.7 18 Sudoeste 24 Sudoeste 0 -- -- 66
2019-08-08 23:00:00 22.8 13 Sudoeste 23 Oeste 0 -- -- 62
2019-08-08 22:00:00 24.2 16 Sudoeste 35 Sudoeste 0 -- -- 58
2019-08-08 21:00:00 25.8 25 Sudoeste 45 Sudoeste 0 -- -- 52
2019-08-08 20:00:00 27.5 30 Sudoeste 49 Sudoeste 0 -- -- 46
2019-08-08 19:00:00 28.7 31 Sudoeste 55 Sudoeste 0 -- -- 41
2019-08-08 18:00:00 28.5 36 Sudoeste 62 Sudoeste 0 -- -- 40
2019-08-08 17:00:00 28.7 29 Sudoeste 47 Sudoeste 0 -- -- 44
2019-08-08 16:00:00 28.2 28 Sudoeste 48 Sudoeste 0 -- -- 44
2019-08-08 15:00:00 27.7 26 Sudoeste 49 Sudoeste 0 -- -- 45
2019-08-08 14:00:00 27.4 25 Sudoeste 45 Sudoeste 0 -- -- 47
2019-08-08 13:00:00 26.5 26 Sudoeste 41 Sudoeste 0 -- -- 49
2019-08-08 12:00:00 25.1 20 Sudoeste 38 Sudoeste 0 -- -- 53
2019-08-08 11:00:00 23.9 22 Sudoeste 38 Sur 0 -- -- 53
2019-08-08 10:00:00 21.9 26 Sudoeste 42 Sudoeste 0 -- -- 61
2019-08-08 09:00:00 20.1 16 Sudoeste 27 Sudoeste 0 -- -- 68
2019-08-08 08:00:00 18.9 17 Sudoeste 26 Sudoeste 0 -- -- 71
2019-08-08 07:00:00 18.7 11 Sudoeste 19 Sur 0 -- -- 71
2019-08-08 06:00:00 18.1 6 Sudoeste 16 Sudoeste 0 -- -- 72
2019-08-08 05:00:00 18.6 9 Sudoeste 18 Sudoeste 0 -- -- 69
2019-08-08 04:00:00 18.9 12 Sudoeste 23 Sudoeste 0 -- -- 67
2019-08-08 03:00:00 18.6 9 Sudoeste 23 Sudoeste 0 -- -- 66
2019-08-08 02:00:00 17.9 9 Sudoeste 13 Sudoeste 0 -- -- 72
2019-08-08 01:00:00 17.2 5 Sudoeste 12 Sudoeste 0 -- -- 75
2019-08-08 00:00:00 18 5 Sur 13 Sur 0 -- -- 70
2019-08-07 23:00:00 18.6 5 Sur 14 Sur 0 -- -- 64
2019-08-07 22:00:00 19.7 9 Sur 24 Sudoeste 0 -- -- 59
2019-08-07 21:00:00 21.7 14 Sudoeste 23 Sudoeste 0 -- -- 54
2019-08-07 20:00:00 22.5 14 Sur 34 Sudoeste 0 -- -- 49
2019-08-07 19:00:00 23.3 18 Sudoeste 37 Sudoeste 0 -- -- 48
2019-08-07 18:00:00 22.4 18 Sudoeste 33 Sudoeste 0 -- -- 49
2019-08-07 17:00:00 21.6 23 Sudoeste 50 Sudoeste 0 -- -- 51
2019-08-07 16:00:00 22.5 27 Sudoeste 38 Sudoeste 0 -- -- 57
2019-08-07 15:00:00 23.1 21 Sudoeste 33 Sudoeste 0 -- -- 52
2019-08-07 14:00:00 22.8 21 Sudoeste 33 Sudoeste 0 -- -- 56
2019-08-07 13:00:00 23.7 14 Sudoeste 26 Sudoeste 0 -- -- 53
2019-08-07 12:00:00 22.7 3 Sudoeste 11 Sudoeste 0 -- -- 60
2019-08-07 11:00:00 21.8 4 Oeste 9 Oeste 0 -- -- 64
2019-08-07 10:00:00 20.1 2 Nordeste 8 Sudeste 0 -- -- 70
2019-08-07 09:00:00 18.1 0 Calma 5 Sudoeste 0 -- -- 79
2019-08-07 08:00:00 16.8 5 Oeste 11 Noroeste 0 -- -- 84
2019-08-07 07:00:00 17.4 9 Noroeste 17 Noroeste 0 -- -- 79
2019-08-07 06:00:00 17.8 6 Oeste 13 Oeste 0 -- -- 76
2019-08-07 05:00:00 18.5 8 Noroeste 10 Oeste 0 -- -- 72
2019-08-07 04:00:00 19.7 5 Sudeste 9 Noroeste 0 -- -- 67
2019-08-07 03:00:00 20.4 5 Noroeste 11 Noroeste 0 -- -- 65
2019-08-07 02:00:00 21 6 Noroeste 8 Noroeste 0 -- -- 64
2019-08-07 01:00:00 21.5 5 Oeste 15 Oeste 0 -- -- 63
2019-08-07 00:00:00 22.1 4 Sudoeste 17 Oeste 0 -- -- 61
2019-08-06 23:00:00 23.2 9 Noroeste 21 Oeste 0 -- -- 57
2019-08-06 22:00:00 24.5 15 Oeste 24 Oeste 0 -- -- 51
2019-08-06 21:00:00 27.1 11 Oeste 36 Sudoeste 0 -- -- 35
2019-08-06 20:00:00 28.7 19 Sudoeste 37 Sudoeste 0 -- -- 27
2019-08-06 19:00:00 29.8 22 Sudoeste 40 Sudoeste 0 -- -- 28
2019-08-06 18:00:00 31.3 24 Sudoeste 42 Sudoeste 0 -- -- 28
2019-08-06 17:00:00 31.1 23 Sudoeste 37 Sudoeste 0 -- -- 27
2019-08-06 16:00:00 32 22 Sudoeste 40 Sudoeste 0 -- -- 26
2019-08-06 15:00:00 31.5 16 Sudoeste 29 Sudoeste 0 -- -- 28
2019-08-06 14:00:00 30.6 13 Sudoeste 30 Sur 0 -- -- 30
2019-08-06 13:00:00 29.6 14 Sudoeste 27 Oeste 0 -- -- 30
2019-08-06 12:00:00 27.8 4 Noroeste 11 Sudoeste 0 -- -- 35
2019-08-06 11:00:00 24.6 4 Norte 12 Norte 0 -- -- 47
2019-08-06 10:00:00 21.3 3 Norte 7 Oeste 0 -- -- 55
2019-08-06 09:00:00 16.8 5 Oeste 8 Sudoeste 0 -- -- 65
2019-08-06 08:00:00 13.4 6 Sudoeste 9 Oeste 0 -- -- 71
2019-08-06 07:00:00 12.8 5 Sur 10 Noroeste 0 -- -- 75
2019-08-06 06:00:00 13.6 8 Oeste 10 Oeste 0 -- -- 74
2019-08-06 05:00:00 15.1 5 Oeste 7 Oeste 0 -- -- 66
2019-08-06 04:00:00 16.8 6 Oeste 8 Sur 0 -- -- 58
2019-08-06 03:00:00 18.4 5 Sur 8 Sudeste 0 -- -- 54
2019-08-06 02:00:00 18.6 4 Sur 10 Sudoeste 0 -- -- 47
2019-08-06 01:00:00 18.5 6 Sudoeste 14 Sudoeste 0 -- -- 34
2019-08-06 00:00:00 20.1 12 Oeste 14 Sudoeste 0 -- -- 32
2019-08-05 23:00:00 22.8 5 Oeste 13 Sudoeste 0 -- -- 35
2019-08-05 22:00:00 25.9 9 Oeste 16 Oeste 0 -- -- 28
2019-08-05 21:00:00 29.2 9 Oeste 27 Sudoeste 0 -- -- 28
2019-08-05 20:00:00 31.5 15 Sudoeste 35 Sudoeste 0 -- -- 20
2019-08-05 19:00:00 32.2 14 Sudoeste 28 Sudoeste 0 -- -- 19
2019-08-05 18:00:00 32.6 16 Sudoeste 31 Sudoeste 0 -- -- 17
2019-08-05 17:00:00 32.5 16 Sudoeste 34 Sudoeste 0 -- -- 14
2019-08-05 16:00:00 32.1 18 Sudoeste 38 Sudoeste 0 -- -- 15
2019-08-05 15:00:00 31.4 19 Sudoeste 36 Sudoeste 0 -- -- 19
2019-08-05 14:00:00 30.3 17 Sudoeste 31 Sudoeste 0 -- -- 21
2019-08-05 13:00:00 28.8 11 Sudoeste 21 Sudoeste 0 -- -- 26
2019-08-05 12:00:00 25.8 6 Oeste 12 Oeste 0 -- -- 41
2019-08-05 11:00:00 23 6 Este 12 Este 0 -- -- 58
2019-08-05 10:00:00 20.4 5 Nordeste 8 Nordeste 0 -- -- 68
2019-08-05 09:00:00 15.2 2 Oeste 8 Oeste 0 -- -- 80
2019-08-05 08:00:00 11.7 4 Oeste 8 Oeste 0 -- -- 86
2019-08-05 07:00:00 12 0 Calma 7 Oeste 0 -- -- 87
2019-08-05 06:00:00 12.9 4 Oeste 8 Oeste 0 -- -- 84
2019-08-05 05:00:00 14 7 Oeste 11 Oeste 0 -- -- 82
2019-08-05 04:00:00 15.4 6 Oeste 6 Oeste 0 -- -- 79
2019-08-05 03:00:00 18.1 2 Este 9 Sudoeste 0 -- -- 68
2019-08-05 02:00:00 19.7 4 Sur 13 Sudoeste 0 -- -- 64
2019-08-05 01:00:00 21.3 5 Oeste 19 Oeste 0 -- -- 56
2019-08-05 00:00:00 22.7 10 Oeste 22 Oeste 0 -- -- 50
2019-08-04 23:00:00 23.9 11 Oeste 17 Oeste 0 -- -- 37
2019-08-04 22:00:00 26 9 Sudoeste 26 Sudoeste 0 -- -- 31
2019-08-04 21:00:00 29.1 18 Sudoeste 30 Sudoeste 0 -- -- 28
2019-08-04 20:00:00 30.8 20 Sudoeste 34 Sudoeste 0 -- -- 27
2019-08-04 19:00:00 31.7 20 Sudoeste 37 Oeste 0 -- -- 27
2019-08-04 18:00:00 32 19 Sudoeste 35 Oeste 0 -- -- 27
2019-08-04 17:00:00 32.1 20 Sudoeste 36 Sudoeste 0 -- -- 26
2019-08-04 16:00:00 31.9 15 Sudoeste 33 Sudoeste 0 -- -- 26
2019-08-04 15:00:00 31.5 18 Sudoeste 31 Sudoeste 0 -- -- 27
2019-08-04 14:00:00 30.6 8 Oeste 22 Oeste 0 -- -- 31
2019-08-04 13:00:00 29.2 5 Sur 15 Oeste 0 -- -- 38
2019-08-04 12:00:00 27.1 4 Oeste 13 Sudoeste 0 -- -- 45
2019-08-04 11:00:00 24.4 5 Nordeste 10 Norte 0 -- -- 52
2019-08-04 10:00:00 20.5 5 Oeste 9 Oeste 0 -- -- 67
2019-08-04 09:00:00 16.1 2 Sudoeste 10 Oeste 0 -- -- 76
2019-08-04 08:00:00 12.5 8 Oeste 9 Oeste 0 -- -- 85
2019-08-04 07:00:00 13.1 6 Oeste 8 Oeste 0 -- -- 82
2019-08-04 06:00:00 14.3 4 Oeste 7 Noroeste 0 -- -- 74
2019-08-04 05:00:00 16.6 2 Sudoeste 8 Sudoeste 0 -- -- 70
2019-08-04 04:00:00 17.9 5 Sudoeste 8 Sudoeste 0 -- -- 62
2019-08-04 03:00:00 19.6 4 Sudoeste 9 Sudeste 0 -- -- 55
2019-08-04 02:00:00 20.6 4 Sudeste 9 Oeste 0 -- -- 52
2019-08-04 01:00:00 21.6 8 Oeste 14 Sudoeste 0 -- -- 48
2019-08-04 00:00:00 22.7 8 Oeste 15 Oeste 0 -- -- 45
2019-08-03 23:00:00 23.5 9 Oeste 17 Oeste 0 -- -- 41
2019-08-03 22:00:00 26.1 8 Oeste 19 Sudoeste 0 -- -- 30
2019-08-03 21:00:00 29.6 16 Sudoeste 34 Sudoeste 0 -- -- 26
2019-08-03 20:00:00 31.4 18 Sudoeste 29 Sudoeste 0 -- -- 24
2019-08-03 19:00:00 32.3 12 Sudoeste 30 Sudoeste 0 -- -- 23
2019-08-03 18:00:00 32.7 18 Oeste 33 Sudoeste 0 -- -- 24
2019-08-03 17:00:00 32.9 16 Sudoeste 30 Sudoeste 0 -- -- 23
2019-08-03 16:00:00 32.5 16 Sudoeste 32 Sudoeste 0 -- -- 18
2019-08-03 15:00:00 31.5 18 Sudoeste 32 Oeste 0 -- -- 21
2019-08-03 14:00:00 30.9 20 Sudoeste 36 Oeste 0 -- -- 23
2019-08-03 13:00:00 30 18 Sudoeste 37 Sudoeste 0 -- -- 23
2019-08-03 12:00:00 29 18 Sudoeste 32 Sudoeste 0 -- -- 27
2019-08-03 11:00:00 25.7 6 Sudoeste 12 Sur 0 -- -- 32
2019-08-03 10:00:00 20.9 3 Sudoeste 8 Sudoeste 0 -- -- 42
2019-08-03 09:00:00 15.7 4 Sudoeste 8 Sudoeste 0 -- -- 56
2019-08-03 08:00:00 12.5 5 Oeste 7 Sudoeste 0 -- -- 67
2019-08-03 07:00:00 12 6 Oeste 11 Oeste 0 -- -- 70
2019-08-03 06:00:00 13.9 5 Oeste 9 Oeste 0 -- -- 61
2019-08-03 05:00:00 16.4 0 Calma 18 Oeste 0 -- -- 54
2019-08-03 04:00:00 16 7 Sudoeste 12 Sur 0 -- -- 51
2019-08-03 03:00:00 16.3 4 Sudoeste 13 Oeste 0 -- -- 47
2019-08-03 02:00:00 17.7 8 Oeste 10 Oeste 0 -- -- 41
2019-08-03 01:00:00 18.7 4 Sudoeste 10 Oeste 0 -- -- 41
2019-08-03 00:00:00 20.5 5 Oeste 12 Oeste 0 -- -- 41
2019-08-02 23:00:00 22.7 9 Oeste 13 Sudoeste 0 -- -- 38
2019-08-02 22:00:00 26.7 4 Noroeste 15 Nordeste 0 -- -- 32
2019-08-02 21:00:00 29.7 9 Nordeste 18 Nordeste 0 -- -- 26
2019-08-02 20:00:00 31.3 12 Nordeste 19 Nordeste 0 -- -- 26
2019-08-02 19:00:00 31.9 14 Nordeste 23 Nordeste 0 -- -- 25
2019-08-02 18:00:00 32.3 10 Nordeste 25 Nordeste 0 -- -- 26
2019-08-02 17:00:00 31.9 9 Este 22 Nordeste 0 -- -- 26
2019-08-02 16:00:00 31.1 11 Norte 24 Nordeste 0 -- -- 27
2019-08-02 15:00:00 30.8 8 Noroeste 19 Este 0 -- -- 27
2019-08-02 14:00:00 29.8 10 Este 18 Este 0 -- -- 28
2019-08-02 13:00:00 27 9 Nordeste 18 Este 0 -- -- 34
2019-08-02 12:00:00 24.4 10 Nordeste 18 Nordeste 0 -- -- 48
2019-08-02 11:00:00 21.3 9 Nordeste 15 Nordeste 0 -- -- 56
2019-08-02 10:00:00 18.5 10 Nordeste 14 Nordeste 0 -- -- 58
2019-08-02 09:00:00 13.8 2 Nordeste 5 Oeste 0 -- -- 70
2019-08-02 08:00:00 10.5 3 Noroeste 7 Oeste 0 -- -- 78
2019-08-02 07:00:00 10.1 4 Sudoeste 8 Oeste 0 -- -- 76
2019-08-02 06:00:00 11.6 6 Oeste 10 Oeste 0 -- -- 76
2019-08-02 05:00:00 13.3 4 Oeste 10 Sudoeste 0 -- -- 68
2019-08-02 04:00:00 15.7 6 Oeste 13 Sudoeste 0 -- -- 61
2019-08-02 03:00:00 17.1 7 Sur 13 Sur 0 -- -- 56
2019-08-02 02:00:00 19.2 4 Oeste 15 Oeste 0 -- -- 48
2019-08-02 01:00:00 19.1 7 Sudoeste 17 Noroeste 0 -- -- 44
2019-08-02 00:00:00 19.4 5 Sudoeste 15 Oeste 0 -- -- 36
2019-08-01 23:00:00 21.4 5 Oeste 10 Oeste 0 -- -- 35
2019-08-01 22:00:00 24.7 6 Oeste 15 Noroeste 0 -- -- 30
2019-08-01 21:00:00 28.6 10 Noroeste 24 Noroeste 0 -- -- 24
2019-08-01 20:00:00 29.9 15 Noroeste 31 Oeste 0 -- -- 24
2019-08-01 19:00:00 30.6 13 Norte 25 Sudoeste 0 -- -- 23
2019-08-01 18:00:00 31 14 Oeste 30 Sudoeste 0 -- -- 24
2019-08-01 17:00:00 30.1 16 Oeste 26 Oeste 0 -- -- 26
2019-08-01 16:00:00 30.3 11 Oeste 26 Norte 0 -- -- 26
2019-08-01 15:00:00 29.3 9 Noroeste 22 Oeste 0 -- -- 27
2019-08-01 14:00:00 28.6 7 Noroeste 20 Noroeste 0 -- -- 27
2019-08-01 13:00:00 27.5 7 Nordeste 15 Este 0 -- -- 34
2019-08-01 12:00:00 25.4 8 Sudoeste 14 Sudoeste 0 -- -- 40
2019-08-01 11:00:00 22.7 6 Sudoeste 10 Oeste 0 -- -- 48
2019-08-01 10:00:00 19.4 4 Sudeste 8 Sudeste 0 -- -- 57
2019-08-01 09:00:00 13.9 3 Sudoeste 10 Sudoeste 0 -- -- 66
2019-08-01 08:00:00 10.8 3 Oeste 11 Sudoeste 0 -- -- 73
2019-08-01 07:00:00 10.9 6 Sudoeste 10 Sudoeste 0 -- -- 69
2019-08-01 06:00:00 12 8 Oeste 9 Oeste 0 -- -- 68
2019-08-01 05:00:00 14 4 Oeste 12 Oeste 0 -- -- 61
2019-08-01 04:00:00 16.1 4 Sudoeste 9 Oeste 0 -- -- 55
2019-08-01 03:00:00 18 9 Oeste 10 Oeste 0 -- -- 53
2019-08-01 02:00:00 18.4 4 Noroeste 9 Noroeste 0 -- -- 50
2019-08-01 01:00:00 20.7 4 Norte 9 Norte 0 -- -- 42
2019-08-01 00:00:00 21.3 0 Calma 8 Norte 0 -- -- 42
2019-07-31 23:00:00 22.6 4 Norte 15 Norte 0 -- -- 38
2019-07-31 22:00:00 24 5 Noroeste 26 Nordeste 0 -- -- 37
2019-07-31 21:00:00 26.2 17 Nordeste 25 Norte 0 -- -- 33
2019-07-31 20:00:00 28.5 14 Sudoeste 23 Sudoeste 0 -- -- 26
2019-07-31 19:00:00 29.4 3 Este 12 Este 0 -- -- 26
2019-07-31 18:00:00 30.1 6 Nordeste 19 Este 0 -- -- 26
2019-07-31 17:00:00 29.3 10 Nordeste 20 Norte 0 -- -- 27
2019-07-31 16:00:00 27.9 6 Este 17 Este 0 -- -- 31
2019-07-31 15:00:00 26.4 12 Este 26 Nordeste 0 -- -- 39
2019-07-31 14:00:00 24.2 15 Nordeste 24 Nordeste 0 -- -- 43
2019-07-31 13:00:00 22.4 15 Nordeste 26 Nordeste 0 -- -- 47
2019-07-31 12:00:00 20.5 17 Nordeste 31 Nordeste 0 -- -- 50
2019-07-31 11:00:00 17.4 16 Nordeste 25 Nordeste 0 -- -- 58
2019-07-31 10:00:00 14.4 16 Nordeste 24 Nordeste 0 -- -- 69
2019-07-31 09:00:00 12.3 17 Nordeste 24 Nordeste 0 -- -- 75
2019-07-31 08:00:00 10.2 9 Nordeste 13 Nordeste 0 -- -- 84
2019-07-31 07:00:00 10.1 7 Nordeste 18 Nordeste 0 -- -- 80
2019-07-31 06:00:00 11.1 10 Nordeste 18 Nordeste 0 -- -- 73
2019-07-31 05:00:00 11.5 10 Nordeste 19 Nordeste 0 -- -- 68
2019-07-31 04:00:00 13.8 14 Nordeste 25 Nordeste 0 -- -- 55
2019-07-31 03:00:00 13.8 14 Nordeste 20 Norte 0 -- -- 53
2019-07-31 02:00:00 13.5 4 Nordeste 12 Norte 0 -- -- 51
2019-07-31 01:00:00 14.8 8 Nordeste 13 Este 0 -- -- 47
2019-07-31 00:00:00 15.2 0 Calma 8 Este 0 -- -- 45
2019-07-30 23:00:00 17.5 3 Norte 11 Norte 0 -- -- 37
2019-07-30 22:00:00 19.9 10 Nordeste 19 Nordeste 0 -- -- 34
2019-07-30 21:00:00 22.7 15 Nordeste 23 Nordeste 0 -- -- 28
2019-07-30 20:00:00 23.6 17 Nordeste 24 Nordeste 0 -- -- 28
2019-07-30 19:00:00 24.3 17 Nordeste 33 Nordeste 0 -- -- 26
2019-07-30 18:00:00 24.5 16 Nordeste 28 Nordeste 0 -- -- 28
2019-07-30 17:00:00 24 18 Nordeste 35 Nordeste 0 -- -- 28
2019-07-30 16:00:00 22.8 19 Nordeste 38 Nordeste 0 -- -- 31
2019-07-30 15:00:00 21.7 21 Nordeste 31 Nordeste 0 -- -- 34
2019-07-30 14:00:00 20.1 19 Nordeste 33 Nordeste 0 -- -- 38
2019-07-30 13:00:00 19 19 Nordeste 31 Nordeste 0 -- -- 42
2019-07-30 12:00:00 17.7 17 Nordeste 30 Nordeste 0 -- -- 48
2019-07-30 11:00:00 15.9 19 Nordeste 36 Norte 0 -- -- 53
2019-07-30 10:00:00 13.8 18 Nordeste 25 Nordeste 0 -- -- 60
2019-07-30 09:00:00 10.6 6 Nordeste 10 Nordeste 0 -- -- 77
2019-07-30 08:00:00 6.5 2 Oeste 6 Sudoeste 0 -- -- 82
2019-07-30 07:00:00 6.4 3 Oeste 6 Oeste 0 -- -- 82
2019-07-30 06:00:00 7.7 2 Oeste 9 Oeste 0 -- -- 80
2019-07-30 05:00:00 7.9 4 Oeste 13 Noroeste 0 -- -- 80
2019-07-30 04:00:00 10 6 Sudoeste 6 Oeste 0 -- -- 73
2019-07-30 03:00:00 12.9 3 Noroeste 16 Noroeste 0 -- -- 61
2019-07-30 02:00:00 13.8 7 Norte 14 Noroeste 0 -- -- 57
2019-07-30 01:00:00 14.8 2 Oeste 11 Noroeste 0 -- -- 55
2019-07-30 00:00:00 15.6 6 Oeste 12 Noroeste 0 -- -- 50
2019-07-29 23:00:00 16.8 6 Oeste 15 Noroeste 0 -- -- 44
2019-07-29 22:00:00 19.3 11 Noroeste 27 Noroeste 0 -- -- 39
2019-07-29 21:00:00 22.2 16 Noroeste 32 Noroeste 0 -- -- 32
2019-07-29 20:00:00 23.7 18 Noroeste 34 Noroeste 0 -- -- 30
2019-07-29 19:00:00 25.2 19 Noroeste 37 Noroeste 0 -- -- 24
2019-07-29 18:00:00 25.6 22 Oeste 36 Noroeste 0 -- -- 28
2019-07-29 17:00:00 26.1 16 Oeste 34 Noroeste 0 -- -- 31
2019-07-29 16:00:00 25.5 19 Oeste 35 Oeste 0 -- -- 33
2019-07-29 15:00:00 25 21 Oeste 39 Oeste 0 -- -- 34
2019-07-29 14:00:00 23.9 14 Oeste 31 Oeste 0 -- -- 47
2019-07-29 13:00:00 22.1 14 Noroeste 25 Oeste 0 -- -- 54
2019-07-29 12:00:00 20.8 7 Noroeste 23 Oeste 0 -- -- 59
2019-07-29 11:00:00 18.8 14 Noroeste 25 Noroeste 0 -- -- 66
2019-07-29 10:00:00 18.1 5 Oeste 9 Oeste 0 -- -- 47
2019-07-29 09:00:00 13.1 3 Sudoeste 10 Oeste 0 -- -- 69
2019-07-29 08:00:00 9.9 4 Noroeste 10 Oeste 0 -- -- 82
2019-07-29 07:00:00 10.7 4 Oeste 11 Sudoeste 0 -- -- 80
2019-07-29 06:00:00 12.5 7 Sudoeste 9 Sudoeste 0 -- -- 73
2019-07-29 05:00:00 13.8 4 Sudoeste 10 Sur 0 -- -- 73
2019-07-29 04:00:00 15.4 4 Sur 12 Oeste 0 -- -- 70
2019-07-29 03:00:00 16.1 5 Sudoeste 9 Sudoeste 0 -- -- 65
2019-07-29 02:00:00 15.7 2 Sudoeste 10 Sudoeste 0 -- -- 55
2019-07-29 01:00:00 16.4 6 Oeste 11 Oeste 0 -- -- 48
2019-07-29 00:00:00 18 2 Sudoeste 10 Oeste 0 -- -- 40
2019-07-28 23:00:00 20.1 7 Sudoeste 10 Oeste 0 -- -- 36
2019-07-28 22:00:00 23 5 Oeste 19 Noroeste 0 -- -- 31
2019-07-28 21:00:00 26.7 11 Noroeste 24 Noroeste 0 -- -- 27
2019-07-28 20:00:00 28.3 12 Oeste 26 Sudoeste 0 -- -- 24
2019-07-28 19:00:00 28.8 15 Oeste 28 Oeste 0 -- -- 29
2019-07-28 18:00:00 28.6 12 Oeste 24 Noroeste 0 -- -- 25
2019-07-28 17:00:00 27.9 6 Norte 22 Norte 0 -- -- 30
2019-07-28 16:00:00 26.9 7 Norte 24 Nordeste 0 -- -- 34
2019-07-28 15:00:00 26.1 9 Norte 26 Nordeste 0 -- -- 35
2019-07-28 14:00:00 24.9 10 Norte 24 Oeste 0 -- -- 37
2019-07-28 13:00:00 22.9 7 Oeste 18 Noroeste 0 -- -- 43
2019-07-28 12:00:00 21.8 10 Nordeste 22 Nordeste 0 -- -- 45
2019-07-28 11:00:00 18.7 11 Nordeste 17 Nordeste 0 -- -- 57
2019-07-28 10:00:00 15.7 10 Nordeste 15 Nordeste 0 -- -- 70
2019-07-28 09:00:00 13.3 10 Nordeste 14 Nordeste 0 -- -- 79
2019-07-28 08:00:00 10.6 3 Noroeste 11 Este 0 -- -- 88
2019-07-28 07:00:00 10.4 6 Nordeste 13 Nordeste 0 -- -- 88
2019-07-28 06:00:00 11.1 11 Nordeste 20 Nordeste 0 -- -- 86
2019-07-28 05:00:00 11.9 13 Nordeste 16 Nordeste 0 -- -- 83
2019-07-28 04:00:00 12.8 6 Nordeste 19 Nordeste 0 -- -- 79
2019-07-28 03:00:00 13.9 14 Nordeste 25 Nordeste 0 -- -- 76
2019-07-28 02:00:00 15 18 Nordeste 30 Nordeste 0 -- -- 74
2019-07-28 01:00:00 16.1 18 Nordeste 26 Nordeste 0 -- -- 73
2019-07-28 00:00:00 15.2 6 Oeste 9 Oeste 0 -- -- 71
2019-07-27 23:00:00 18.5 6 Noroeste 12 Norte 0 -- -- 60
2019-07-26 12:00:00 20 8 Oeste 17 Oeste 0 -- -- 48
2019-07-26 11:00:00 16.7 6 Noroeste 18 Oeste 0 -- -- 59
2019-07-26 10:00:00 15.2 12 Noroeste 23 Oeste 0 -- -- 68
2019-07-26 09:00:00 14.4 15 Oeste 32 Oeste 0 -- -- 73
2019-07-26 08:00:00 15 13 Noroeste 28 Oeste 0 -- -- 77
2019-07-26 07:00:00 15.9 11 Oeste 21 Oeste 0 -- -- 80
2019-07-26 06:00:00 16.7 9 Noroeste 21 Noroeste 0 -- -- 80
2019-07-26 05:00:00 17.7 7 Norte 12 Noroeste 0 -- -- 81
2019-07-26 04:00:00 18.2 6 Noroeste 15 Noroeste 0 -- -- 78
2019-07-26 03:00:00 18.4 8 Noroeste 24 Noroeste 0 -- -- 78
2019-07-26 02:00:00 18.5 13 Noroeste 24 Oeste 0 -- -- 79
2019-07-26 01:00:00 19.6 14 Noroeste 26 Oeste 0 -- -- 76
2019-07-26 00:00:00 20.9 15 Noroeste 32 Noroeste 0 -- -- 70
2019-07-25 23:00:00 22.5 10 Oeste 27 Oeste 0 -- -- 56
2019-07-25 22:00:00 24 16 Noroeste 30 Noroeste 0 -- -- 48
2019-07-25 21:00:00 26.9 15 Oeste 29 Oeste 0 -- -- 32
2019-07-25 20:00:00 28.1 21 Sudoeste 44 Sudoeste 0 -- -- 33
2019-07-25 19:00:00 29.1 23 Sudoeste 46 Sudoeste 0 -- -- 31
2019-07-25 18:00:00 30.4 24 Sudoeste 44 Sudoeste 0 -- -- 30
2019-07-25 17:00:00 29.9 27 Sudoeste 61 Sudoeste 0 -- -- 30
2019-07-25 16:00:00 29.8 25 Sudoeste 57 Sudoeste 0 -- -- 31
2019-07-25 15:00:00 28.5 31 Sudoeste 57 Sudoeste 0 -- -- 31
2019-07-25 14:00:00 28 32 Sudoeste 53 Sudoeste 0 -- -- 33
2019-07-25 13:00:00 28.3 33 Sudoeste 50 Sudoeste 0 -- -- 32
2019-07-25 12:00:00 27.8 22 Sudoeste 42 Sudoeste 0 -- -- 33
2019-07-25 11:00:00 27.4 25 Sudoeste 38 Sudoeste 0 -- -- 32
2019-07-25 10:00:00 25.2 9 Sudoeste 15 Sudoeste 0 -- -- 40
2019-07-25 09:00:00 17.8 2 Noroeste 8 Oeste 0 -- -- 66
2019-07-25 08:00:00 13.4 4 Oeste 7 Oeste 0 -- -- 72
2019-07-25 07:00:00 13.6 6 Oeste 9 Oeste 0 -- -- 70
2019-07-25 06:00:00 14.8 4 Noroeste 11 Sudoeste 0 -- -- 62
2019-07-25 05:00:00 15.8 4 Oeste 14 Oeste 0 -- -- 59
2019-07-25 04:00:00 17.9 5 Oeste 9 Sur 0 -- -- 50
2019-07-25 03:00:00 19.6 6 Sur 10 Sudeste 0 -- -- 45
2019-07-25 02:00:00 21.1 5 Sudoeste 15 Sudoeste 0 -- -- 42
2019-07-25 01:00:00 22.4 6 Sudoeste 12 Noroeste 0 -- -- 43
2019-07-25 00:00:00 23.1 9 Oeste 18 Noroeste 0 -- -- 47
2019-07-24 23:00:00 25.2 5 Sudoeste 10 Sudoeste 0 -- -- 43
2019-07-24 22:00:00 28 6 Sudoeste 20 Sudoeste 0 -- -- 36
2019-07-24 21:00:00 30.9 13 Sudoeste 28 Sudoeste 0 -- -- 32
2019-07-24 20:00:00 32.3 14 Sudoeste 34 Sudoeste 0 -- -- 30
2019-07-24 19:00:00 32.9 18 Sudoeste 40 Sudoeste 0 -- -- 29
2019-07-24 18:00:00 33.4 21 Sudoeste 40 Sudoeste 0 -- -- 27
2019-07-24 17:00:00 33.4 20 Sudoeste 42 Sudoeste 0 -- -- 27
2019-07-24 16:00:00 33.1 25 Sudoeste 47 Sudoeste 0 -- -- 28
2019-07-24 15:00:00 32.6 21 Sudoeste 48 Sudoeste 0 -- -- 30
2019-07-24 14:00:00 32 14 Oeste 40 Sudoeste 0 -- -- 33
2019-07-24 13:00:00 31.3 17 Sudoeste 35 Sudoeste 0 -- -- 35
2019-07-24 12:00:00 30.7 14 Sudoeste 24 Oeste 0 -- -- 35
2019-07-24 11:00:00 29 11 Sur 16 Sur 0 -- -- 37
2019-07-24 10:00:00 25.3 6 Sudoeste 10 Sur 0 -- -- 46
2019-07-24 09:00:00 18.9 4 Oeste 9 Noroeste 0 -- -- 74
2019-07-24 08:00:00 15.4 4 Oeste 10 Oeste 0 -- -- 88
2019-07-24 07:00:00 15.6 5 Oeste 7 Oeste 0 -- -- 86
2019-07-24 06:00:00 16.4 6 Oeste 13 Oeste 0 -- -- 82
2019-07-24 05:00:00 17.3 8 Oeste 11 Oeste 0 -- -- 79
2019-07-24 04:00:00 18.6 4 Oeste 12 Oeste 0 -- -- 74
2019-07-24 03:00:00 19.5 7 Oeste 12 Sudoeste 0 -- -- 73
2019-07-24 02:00:00 20.9 4 Sudoeste 14 Sur 0 -- -- 69
2019-07-24 01:00:00 23.1 3 Este 13 Noroeste 0 -- -- 61
2019-07-24 00:00:00 25.4 8 Noroeste 21 Sur 0 -- -- 51
2019-07-23 23:00:00 24.2 4 Sudoeste 22 Oeste 0 -- -- 58
2019-07-23 22:00:00 27.1 9 Noroeste 17 Noroeste 0 -- -- 44
2019-07-23 21:00:00 29.6 9 Sudoeste 27 Sudoeste 0 -- -- 36
2019-07-23 20:00:00 32 16 Sudoeste 36 Sudoeste 0 -- -- 31
2019-07-23 19:00:00 32.5 24 Sudoeste 45 Sudoeste 0 -- -- 29
2019-07-23 18:00:00 32.9 26 Sudoeste 42 Sudoeste 0 -- -- 29
2019-07-23 17:00:00 32.9 24 Sudoeste 42 Sudoeste 0 -- -- 31
2019-07-23 16:00:00 32.7 20 Sudoeste 38 Sudoeste 0 -- -- 30
2019-07-23 15:00:00 32.2 22 Sudoeste 40 Sudoeste 0 -- -- 31
2019-07-23 14:00:00 30.9 21 Sudoeste 48 Sudoeste 0 -- -- 34
2019-07-23 13:00:00 28.6 15 Sur 25 Sur 0 -- -- 38
2019-07-23 12:00:00 25.3 6 Sudoeste 49 Sur 0 -- -- 47
2019-07-23 11:00:00 24 8 Sur 13 Sur 0 -- -- 55
2019-07-23 10:00:00 21.4 4 Sudoeste 9 Sudoeste 0 -- -- 66
2019-07-23 09:00:00 20 3 Norte 20 Sudoeste 0 -- -- 72
2019-07-23 08:00:00 20.1 17 Sudoeste 47 Nordeste 0 -- -- 66
2019-07-23 07:00:00 18.5 21 Este 46 Sur 1.2 -- -- 75
2019-07-23 06:00:00 20.1 23 Sudoeste 52 Sur 1.4 -- -- 68
2019-07-23 05:00:00 24.1 30 Sudeste 46 Sudeste 0 -- -- 47
2019-07-23 04:00:00 25 20 Sudeste 68 Este 0 -- -- 43
2019-07-23 03:00:00 24.2 22 Sudeste 58 Sudeste 0 -- -- 44
2019-07-23 02:00:00 23.8 18 Nordeste 40 Nordeste 0 -- -- 47
2019-07-23 01:00:00 23.1 31 Nordeste 41 Este 0 -- -- 50
2019-07-23 00:00:00 23.1 20 Nordeste 27 Nordeste 0 -- -- 55
2019-07-22 23:00:00 25.4 4 Este 32 Nordeste 0 -- -- 48
2019-07-22 22:00:00 23.8 6 Norte 14 Nordeste 0 -- -- 76
2019-07-22 21:00:00 23.9 5 Este 7 Este 0 -- -- 77
2019-07-22 20:00:00 24.7 0 Calma 9 Norte 0 -- -- 73
2019-07-22 19:00:00 23.7 7 Noroeste 17 Este 0 -- -- 71
2019-07-22 18:00:00 23 12 Nordeste 17 Este 1.2 -- -- 77
2019-07-22 17:00:00 23.6 13 Nordeste 45 Este 1.2 -- -- 60
2019-07-22 16:00:00 30.8 18 Nordeste 30 Nordeste 0 -- -- 34
2019-07-22 15:00:00 35.1 9 Norte 27 Noroeste 0 -- -- 24
2019-07-22 14:00:00 36.1 9 Noroeste 19 Norte 0 -- -- 22
2019-07-22 13:00:00 34.6 6 Sudoeste 17 Oeste 0 -- -- 23
2019-07-22 12:00:00 33.3 10 Oeste 20 Sudoeste 0 -- -- 26
2019-07-22 11:00:00 30 10 Sudoeste 18 Sudoeste 0 -- -- 32
2019-07-22 10:00:00 25.9 4 Nordeste 6 Nordeste 0 -- -- 44
2019-07-22 09:00:00 20.4 4 Este 6 Este 0 -- -- 49
2019-07-22 08:00:00 16.3 3 Noroeste 8 Norte 0 -- -- 57
2019-07-22 07:00:00 15.6 5 Noroeste 9 Noroeste 0 -- -- 58
2019-07-22 06:00:00 15.6 4 Noroeste 12 Sudoeste 0 -- -- 56
2019-07-22 05:00:00 16.2 4 Noroeste 10 Sudoeste 0 -- -- 51
2019-07-22 04:00:00 16.7 5 Sudoeste 12 Oeste 0 -- -- 48
2019-07-22 03:00:00 18.1 4 Noroeste 12 Oeste 0 -- -- 46
2019-07-22 02:00:00 18.8 3 Oeste 10 Sudoeste 0 -- -- 41
2019-07-22 01:00:00 20.4 6 Sudoeste 10 Oeste 0 -- -- 38
2019-07-22 00:00:00 22.3 8 Oeste 11 Sudoeste 0 -- -- 32
2019-07-21 23:00:00 26.9 0 Calma 12 Oeste 0 -- -- 24
2019-07-21 22:00:00 29.1 9 Noroeste 13 Oeste 0 -- -- 22
2019-07-21 21:00:00 32.8 10 Sudoeste 23 Oeste 0 -- -- 18
2019-07-21 20:00:00 34.4 12 Sudoeste 26 Sudoeste 0 -- -- 17
2019-07-21 19:00:00 34.8 16 Sudoeste 30 Sudoeste 0 -- -- 18
2019-07-21 18:00:00 35.1 13 Oeste 35 Sudoeste 0 -- -- 19
2019-07-21 17:00:00 34.9 17 Sudoeste 39 Sudoeste 0 -- -- 19
2019-07-21 16:00:00 34.5 19 Oeste 35 Sudoeste 0 -- -- 19
2019-07-21 15:00:00 34 19 Sudoeste 32 Sudoeste 0 -- -- 23
2019-07-21 14:00:00 33.4 15 Sudoeste 30 Oeste 0 -- -- 25
2019-07-21 13:00:00 29.9 9 Este 19 Nordeste 0 -- -- 35
2019-07-21 12:00:00 26.7 9 Nordeste 18 Nordeste 0 -- -- 44
2019-07-21 11:00:00 24.1 9 Nordeste 13 Nordeste 0 -- -- 50
2019-07-21 10:00:00 20.5 6 Nordeste 14 Nordeste 0 -- -- 59
2019-07-21 09:00:00 17.2 3 Nordeste 5 Este 0 -- -- 69
2019-07-21 08:00:00 12.6 3 Noroeste 9 Oeste 0 -- -- 80
2019-07-21 07:00:00 12.8 5 Noroeste 8 Oeste 0 -- -- 75
2019-07-21 06:00:00 13.9 2 Sudoeste 6 Oeste 0 -- -- 69
2019-07-21 05:00:00 14.4 4 Sudoeste 9 Oeste 0 -- -- 68
2019-07-21 04:00:00 15.9 5 Oeste 11 Oeste 0 -- -- 66
2019-07-21 03:00:00 17.5 9 Oeste 11 Oeste 0 -- -- 57
2019-07-21 02:00:00 20.1 3 Sudoeste 9 Sudoeste 0 -- -- 50
2019-07-21 01:00:00 20 5 Sudoeste 19 Oeste 0 -- -- 47
2019-07-21 00:00:00 20.7 13 Oeste 15 Oeste 0 -- -- 46
2019-07-20 23:00:00 24.9 3 Oeste 9 Nordeste 0 -- -- 37
2019-07-20 22:00:00 27.6 6 Norte 21 Noroeste 0 -- -- 32
2019-07-20 21:00:00 30.5 15 Noroeste 28 Noroeste 0 -- -- 27
2019-07-20 20:00:00 32.1 15 Noroeste 30 Oeste 0 -- -- 25
2019-07-20 19:00:00 33.2 15 Oeste 30 Oeste 0 -- -- 25
2019-07-20 18:00:00 33.3 8 Oeste 27 Sudoeste 0 -- -- 26
2019-07-20 17:00:00 32.9 13 Noroeste 31 Oeste 0 -- -- 27
2019-07-20 16:00:00 32.3 15 Oeste 27 Oeste 0 -- -- 29
2019-07-20 15:00:00 31.6 12 Oeste 25 Oeste 0 -- -- 27
2019-07-20 14:00:00 30.2 10 Oeste 25 Oeste 0 -- -- 35
2019-07-20 13:00:00 29.3 8 Norte 18 Norte 0 -- -- 38
2019-07-20 12:00:00 27 6 Oeste 13 Noroeste 0 -- -- 42
2019-07-20 11:00:00 25.1 6 Noroeste 13 Norte 0 -- -- 48
2019-07-20 10:00:00 23 4 Oeste 9 Oeste 0 -- -- 57
2019-07-20 09:00:00 19.8 3 Sudoeste 6 Noroeste 0 -- -- 65
2019-07-20 08:00:00 15.7 2 Sudeste 10 Noroeste 0 -- -- 73
2019-07-20 07:00:00 15.6 3 Noroeste 10 Oeste 0 -- -- 73
2019-07-20 06:00:00 15.1 4 Oeste 10 Oeste 0 -- -- 72
2019-07-20 05:00:00 16.5 5 Oeste 10 Oeste 0 -- -- 66
2019-07-20 04:00:00 18.5 5 Sudoeste 10 Oeste 0 -- -- 59
2019-07-20 03:00:00 20 4 Sudoeste 12 Oeste 0 -- -- 56
2019-07-20 02:00:00 22.3 4 Sudoeste 9 Oeste 0 -- -- 49
2019-07-20 01:00:00 23.6 4 Oeste 18 Noroeste 0 -- -- 47
2019-07-20 00:00:00 25.3 13 Noroeste 28 Noroeste 0 -- -- 43
2019-07-19 23:00:00 24.4 9 Oeste 17 Noroeste 0 -- -- 38
2019-07-19 22:00:00 27.7 7 Sudoeste 19 Sudoeste 0 -- -- 31
2019-07-19 21:00:00 31 14 Sudoeste 28 Sudoeste 0 -- -- 26
2019-07-19 20:00:00 32.8 17 Sudoeste 32 Sudoeste 0 -- -- 24
2019-07-19 19:00:00 33.6 18 Sudoeste 43 Sudoeste 0 -- -- 23
2019-07-19 18:00:00 33.6 18 Sudoeste 39 Sudoeste 0 -- -- 23
2019-07-19 17:00:00 33.9 19 Sudoeste 42 Sudoeste 0 -- -- 22
2019-07-19 16:00:00 33.3 18 Sudoeste 36 Sudoeste 0 -- -- 24
2019-07-19 15:00:00 33.5 15 Oeste 42 Sudoeste 0 -- -- 26
2019-07-19 14:00:00 32.8 19 Sudoeste 31 Oeste 0 -- -- 27
2019-07-19 13:00:00 32 17 Sudoeste 31 Sudoeste 0 -- -- 28
2019-07-19 12:00:00 29.5 3 Sudeste 13 Nordeste 0 -- -- 32
2019-07-19 11:00:00 24.7 8 Nordeste 13 Nordeste 0 -- -- 34
2019-07-19 10:00:00 21.3 6 Nordeste 12 Nordeste 0 -- -- 47
2019-07-19 09:00:00 16.7 2 Sudoeste 10 Oeste 0 -- -- 54
2019-07-19 08:00:00 13.1 2 Noroeste 4 Oeste 0 -- -- 67
2019-07-19 07:00:00 12.4 3 Sur 8 Norte 0 -- -- 68
2019-07-19 06:00:00 13.6 3 Noroeste 9 Sudoeste 0 -- -- 64
2019-07-19 05:00:00 14.1 6 Oeste 12 Oeste 0 -- -- 63
2019-07-19 04:00:00 14.4 9 Oeste 12 Oeste 0 -- -- 63
2019-07-19 03:00:00 15.5 5 Oeste 13 Sudoeste 0 -- -- 58
2019-07-19 02:00:00 17 6 Oeste 10 Oeste 0 -- -- 54
2019-07-19 01:00:00 18.4 4 Oeste 10 Oeste 0 -- -- 56
2019-07-19 00:00:00 21.3 0 Calma 6 Oeste 0 -- -- 44